sensor_id;sensor_type;location;lat;lon;timestamp;P1;durP1;ratioP1;P2;durP2;ratioP2
59854;SDS011;45732;52.850;6.896;2023-08-07T00:02:07;10.95;;;5.72;;
59854;SDS011;45732;52.850;6.896;2023-08-07T00:04:33;12.85;;;5.53;;
59854;SDS011;45732;52.850;6.896;2023-08-07T00:06:58;8.48;;;5.75;;
59854;SDS011;45732;52.850;6.896;2023-08-07T00:09:24;9.13;;;5.90;;
59854;SDS011;45732;52.850;6.896;2023-08-07T00:11:50;10.32;;;6.43;;
59854;SDS011;45732;52.850;6.896;2023-08-07T00:14:15;10.57;;;6.07;;
59854;SDS011;45732;52.850;6.896;2023-08-07T00:16:41;12.88;;;6.15;;
59854;SDS011;45732;52.850;6.896;2023-08-07T00:19:07;10.35;;;6.38;;
59854;SDS011;45732;52.850;6.896;2023-08-07T00:21:33;10.90;;;6.88;;
59854;SDS011;45732;52.850;6.896;2023-08-07T00:24:01;9.10;;;6.00;;
59854;SDS011;45732;52.850;6.896;2023-08-07T00:26:26;9.35;;;5.93;;
59854;SDS011;45732;52.850;6.896;2023-08-07T00:28:52;10.98;;;6.45;;
59854;SDS011;45732;52.850;6.896;2023-08-07T00:31:18;8.73;;;5.72;;
59854;SDS011;45732;52.850;6.896;2023-08-07T00:33:44;10.95;;;6.35;;
59854;SDS011;45732;52.850;6.896;2023-08-07T00:36:09;12.27;;;6.45;;
59854;SDS011;45732;52.850;6.896;2023-08-07T00:38:35;10.52;;;6.40;;
59854;SDS011;45732;52.850;6.896;2023-08-07T00:41:01;9.88;;;6.22;;
59854;SDS011;45732;52.850;6.896;2023-08-07T00:43:27;9.55;;;6.18;;
59854;SDS011;45732;52.850;6.896;2023-08-07T00:45:52;9.32;;;5.88;;
59854;SDS011;45732;52.850;6.896;2023-08-07T00:48:18;8.23;;;5.63;;
59854;SDS011;45732;52.850;6.896;2023-08-07T00:50:44;9.20;;;5.78;;
59854;SDS011;45732;52.850;6.896;2023-08-07T00:53:11;9.00;;;5.35;;
59854;SDS011;45732;52.850;6.896;2023-08-07T00:55:37;9.65;;;5.30;;
59854;SDS011;45732;52.850;6.896;2023-08-07T00:58:02;8.57;;;5.25;;
59854;SDS011;45732;52.850;6.896;2023-08-07T01:00:28;8.45;;;5.53;;
59854;SDS011;45732;52.850;6.896;2023-08-07T01:02:56;8.93;;;4.95;;
59854;SDS011;45732;52.850;6.896;2023-08-07T01:05:23;10.57;;;5.15;;
59854;SDS011;45732;52.850;6.896;2023-08-07T01:07:50;7.90;;;5.22;;
59854;SDS011;45732;52.850;6.896;2023-08-07T01:10:21;8.90;;;5.35;;
59854;SDS011;45732;52.850;6.896;2023-08-07T01:13:14;9.50;;;5.60;;
59854;SDS011;45732;52.850;6.896;2023-08-07T01:15:45;8.70;;;4.88;;
59854;SDS011;45732;52.850;6.896;2023-08-07T01:18:14;7.93;;;4.75;;
59854;SDS011;45732;52.850;6.896;2023-08-07T01:20:40;9.13;;;5.18;;
59854;SDS011;45732;52.850;6.896;2023-08-07T01:23:06;10.60;;;5.43;;
59854;SDS011;45732;52.850;6.896;2023-08-07T01:25:31;10.48;;;5.40;;
59854;SDS011;45732;52.850;6.896;2023-08-07T01:30:53;9.45;;;5.28;;
59854;SDS011;45732;52.850;6.896;2023-08-07T01:33:24;8.43;;;5.07;;
59854;SDS011;45732;52.850;6.896;2023-08-07T01:35:57;10.18;;;5.05;;
59854;SDS011;45732;52.850;6.896;2023-08-07T01:38:26;9.27;;;5.07;;
59854;SDS011;45732;52.850;6.896;2023-08-07T01:40:53;8.75;;;4.68;;
59854;SDS011;45732;52.850;6.896;2023-08-07T01:43:19;8.77;;;4.90;;
59854;SDS011;45732;52.850;6.896;2023-08-07T01:45:45;9.48;;;4.55;;
59854;SDS011;45732;52.850;6.896;2023-08-07T01:48:11;7.53;;;4.18;;
59854;SDS011;45732;52.850;6.896;2023-08-07T01:50:37;8.63;;;4.13;;
59854;SDS011;45732;52.850;6.896;2023-08-07T01:53:04;8.40;;;4.05;;
59854;SDS011;45732;52.850;6.896;2023-08-07T01:55:30;7.97;;;3.83;;
59854;SDS011;45732;52.850;6.896;2023-08-07T01:57:56;7.85;;;3.67;;
59854;SDS011;45732;52.850;6.896;2023-08-07T02:00:22;8.20;;;3.75;;
59854;SDS011;45732;52.850;6.896;2023-08-07T02:02:48;7.43;;;3.55;;
59854;SDS011;45732;52.850;6.896;2023-08-07T02:05:14;11.15;;;4.13;;
59854;SDS011;45732;52.850;6.896;2023-08-07T02:07:40;7.38;;;3.88;;
59854;SDS011;45732;52.850;6.896;2023-08-07T02:10:06;8.18;;;3.80;;
59854;SDS011;45732;52.850;6.896;2023-08-07T02:12:32;7.72;;;3.78;;
59854;SDS011;45732;52.850;6.896;2023-08-07T02:14:58;8.10;;;4.00;;
59854;SDS011;45732;52.850;6.896;2023-08-07T02:17:27;6.10;;;3.50;;
59854;SDS011;45732;52.850;6.896;2023-08-07T02:19:55;7.03;;;3.60;;
59854;SDS011;45732;52.850;6.896;2023-08-07T02:22:21;8.50;;;3.80;;
59854;SDS011;45732;52.850;6.896;2023-08-07T02:24:47;9.68;;;3.78;;
59854;SDS011;45732;52.850;6.896;2023-08-07T02:27:13;7.38;;;3.55;;
59854;SDS011;45732;52.850;6.896;2023-08-07T02:29:38;9.63;;;3.60;;
59854;SDS011;45732;52.850;6.896;2023-08-07T02:32:04;9.15;;;3.42;;
59854;SDS011;45732;52.850;6.896;2023-08-07T02:34:30;8.85;;;3.47;;
59854;SDS011;45732;52.850;6.896;2023-08-07T02:36:56;10.40;;;3.65;;
59854;SDS011;45732;52.850;6.896;2023-08-07T02:39:23;9.15;;;3.40;;
59854;SDS011;45732;52.850;6.896;2023-08-07T02:41:49;10.07;;;3.45;;
59854;SDS011;45732;52.850;6.896;2023-08-07T02:44:15;11.50;;;3.33;;
59854;SDS011;45732;52.850;6.896;2023-08-07T02:46:42;9.60;;;3.08;;
59854;SDS011;45732;52.850;6.896;2023-08-07T02:49:08;8.00;;;3.00;;
59854;SDS011;45732;52.850;6.896;2023-08-07T02:51:34;8.13;;;3.00;;
59854;SDS011;45732;52.850;6.896;2023-08-07T02:53:59;11.70;;;3.17;;
59854;SDS011;45732;52.850;6.896;2023-08-07T02:56:25;9.15;;;2.70;;
59854;SDS011;45732;52.850;6.896;2023-08-07T02:58:51;9.50;;;2.97;;
59854;SDS011;45732;52.850;6.896;2023-08-07T03:01:16;11.75;;;3.28;;
59854;SDS011;45732;52.850;6.896;2023-08-07T03:03:42;14.98;;;3.22;;
59854;SDS011;45732;52.850;6.896;2023-08-07T03:06:08;12.20;;;2.97;;
59854;SDS011;45732;52.850;6.896;2023-08-07T03:08:34;11.10;;;2.97;;
59854;SDS011;45732;52.850;6.896;2023-08-07T03:10:59;11.05;;;2.80;;
59854;SDS011;45732;52.850;6.896;2023-08-07T03:13:25;11.02;;;3.00;;
59854;SDS011;45732;52.850;6.896;2023-08-07T03:16:01;9.60;;;2.80;;
59854;SDS011;45732;52.850;6.896;2023-08-07T03:18:29;10.65;;;2.97;;
59854;SDS011;45732;52.850;6.896;2023-08-07T03:20:55;11.27;;;2.83;;
59854;SDS011;45732;52.850;6.896;2023-08-07T03:23:22;13.57;;;3.58;;
59854;SDS011;45732;52.850;6.896;2023-08-07T03:25:48;10.88;;;2.85;;
59854;SDS011;45732;52.850;6.896;2023-08-07T03:28:14;12.43;;;3.20;;
59854;SDS011;45732;52.850;6.896;2023-08-07T03:30:40;9.55;;;3.03;;
59854;SDS011;45732;52.850;6.896;2023-08-07T03:33:06;14.25;;;2.80;;
59854;SDS011;45732;52.850;6.896;2023-08-07T03:35:32;9.98;;;2.80;;
59854;SDS011;45732;52.850;6.896;2023-08-07T03:37:57;9.82;;;2.65;;
59854;SDS011;45732;52.850;6.896;2023-08-07T03:40:23;13.95;;;2.92;;
59854;SDS011;45732;52.850;6.896;2023-08-07T03:42:49;9.25;;;2.53;;
59854;SDS011;45732;52.850;6.896;2023-08-07T03:45:14;12.95;;;2.83;;
59854;SDS011;45732;52.850;6.896;2023-08-07T03:47:40;12.30;;;3.15;;
59854;SDS011;45732;52.850;6.896;2023-08-07T03:50:06;11.90;;;2.97;;
59854;SDS011;45732;52.850;6.896;2023-08-07T03:52:32;14.55;;;2.83;;
59854;SDS011;45732;52.850;6.896;2023-08-07T03:54:58;12.25;;;3.00;;
59854;SDS011;45732;52.850;6.896;2023-08-07T03:57:23;10.77;;;2.95;;
59854;SDS011;45732;52.850;6.896;2023-08-07T03:59:50;12.35;;;3.28;;
59854;SDS011;45732;52.850;6.896;2023-08-07T04:02:16;8.38;;;2.58;;
59854;SDS011;45732;52.850;6.896;2023-08-07T04:04:41;10.63;;;3.13;;
59854;SDS011;45732;52.850;6.896;2023-08-07T04:07:07;13.82;;;2.88;;
59854;SDS011;45732;52.850;6.896;2023-08-07T04:09:33;10.98;;;2.70;;
59854;SDS011;45732;52.850;6.896;2023-08-07T04:11:58;11.25;;;2.83;;
59854;SDS011;45732;52.850;6.896;2023-08-07T04:14:24;14.82;;;2.75;;
59854;SDS011;45732;52.850;6.896;2023-08-07T04:16:50;11.55;;;3.38;;
59854;SDS011;45732;52.850;6.896;2023-08-07T04:19:16;10.55;;;3.10;;
59854;SDS011;45732;52.850;6.896;2023-08-07T04:21:42;16.40;;;3.15;;
59854;SDS011;45732;52.850;6.896;2023-08-07T04:24:08;12.30;;;3.22;;
59854;SDS011;45732;52.850;6.896;2023-08-07T04:26:35;10.70;;;2.78;;
59854;SDS011;45732;52.850;6.896;2023-08-07T04:29:02;11.95;;;2.67;;
59854;SDS011;45732;52.850;6.896;2023-08-07T04:31:28;10.02;;;2.90;;
59854;SDS011;45732;52.850;6.896;2023-08-07T04:33:56;10.50;;;2.75;;
59854;SDS011;45732;52.850;6.896;2023-08-07T04:36:22;12.98;;;2.45;;
59854;SDS011;45732;52.850;6.896;2023-08-07T04:38:49;9.75;;;2.63;;
59854;SDS011;45732;52.850;6.896;2023-08-07T04:41:15;9.80;;;2.90;;
59854;SDS011;45732;52.850;6.896;2023-08-07T04:43:41;9.82;;;2.30;;
59854;SDS011;45732;52.850;6.896;2023-08-07T04:46:08;11.32;;;2.67;;
59854;SDS011;45732;52.850;6.896;2023-08-07T04:48:35;10.77;;;2.50;;
59854;SDS011;45732;52.850;6.896;2023-08-07T04:51:01;10.00;;;2.58;;
59854;SDS011;45732;52.850;6.896;2023-08-07T04:53:27;11.57;;;2.58;;
59854;SDS011;45732;52.850;6.896;2023-08-07T04:55:53;10.40;;;2.70;;
59854;SDS011;45732;52.850;6.896;2023-08-07T04:58:19;11.07;;;2.80;;
59854;SDS011;45732;52.850;6.896;2023-08-07T05:00:44;9.02;;;2.58;;
59854;SDS011;45732;52.850;6.896;2023-08-07T05:03:10;8.05;;;2.50;;
59854;SDS011;45732;52.850;6.896;2023-08-07T05:05:36;12.88;;;2.90;;
59854;SDS011;45732;52.850;6.896;2023-08-07T05:08:02;10.00;;;2.97;;
59854;SDS011;45732;52.850;6.896;2023-08-07T05:10:27;9.95;;;3.03;;
59854;SDS011;45732;52.850;6.896;2023-08-07T05:12:53;7.57;;;2.60;;
59854;SDS011;45732;52.850;6.896;2023-08-07T05:15:24;9.45;;;2.88;;
59854;SDS011;45732;52.850;6.896;2023-08-07T05:17:50;8.95;;;2.40;;
59854;SDS011;45732;52.850;6.896;2023-08-07T05:20:17;10.10;;;2.50;;
59854;SDS011;45732;52.850;6.896;2023-08-07T05:22:43;8.25;;;3.00;;
59854;SDS011;45732;52.850;6.896;2023-08-07T05:25:09;15.65;;;3.38;;
59854;SDS011;45732;52.850;6.896;2023-08-07T05:27:36;10.93;;;2.58;;
59854;SDS011;45732;52.850;6.896;2023-08-07T05:30:02;10.00;;;3.08;;
59854;SDS011;45732;52.850;6.896;2023-08-07T05:32:29;11.70;;;3.45;;
59854;SDS011;45732;52.850;6.896;2023-08-07T05:34:55;9.50;;;3.00;;
59854;SDS011;45732;52.850;6.896;2023-08-07T05:37:20;10.68;;;3.40;;
59854;SDS011;45732;52.850;6.896;2023-08-07T05:39:46;11.10;;;3.67;;
59854;SDS011;45732;52.850;6.896;2023-08-07T05:42:12;13.05;;;3.53;;
59854;SDS011;45732;52.850;6.896;2023-08-07T05:44:38;13.55;;;3.83;;
59854;SDS011;45732;52.850;6.896;2023-08-07T05:47:04;13.93;;;3.58;;
59854;SDS011;45732;52.850;6.896;2023-08-07T05:49:30;11.13;;;3.92;;
59854;SDS011;45732;52.850;6.896;2023-08-07T05:51:56;9.02;;;2.95;;
59854;SDS011;45732;52.850;6.896;2023-08-07T05:54:22;8.43;;;2.70;;
59854;SDS011;45732;52.850;6.896;2023-08-07T05:56:47;9.80;;;2.88;;
59854;SDS011;45732;52.850;6.896;2023-08-07T05:59:13;10.55;;;2.97;;
59854;SDS011;45732;52.850;6.896;2023-08-07T06:01:40;10.27;;;2.90;;
59854;SDS011;45732;52.850;6.896;2023-08-07T06:04:06;12.25;;;2.97;;
59854;SDS011;45732;52.850;6.896;2023-08-07T06:06:32;7.40;;;2.97;;
59854;SDS011;45732;52.850;6.896;2023-08-07T06:08:59;9.32;;;3.05;;
59854;SDS011;45732;52.850;6.896;2023-08-07T06:11:26;11.65;;;3.10;;
59854;SDS011;45732;52.850;6.896;2023-08-07T06:13:52;11.25;;;3.30;;
59854;SDS011;45732;52.850;6.896;2023-08-07T06:16:18;12.18;;;3.85;;
59854;SDS011;45732;52.850;6.896;2023-08-07T06:18:43;12.13;;;3.65;;
59854;SDS011;45732;52.850;6.896;2023-08-07T06:21:09;11.23;;;3.53;;
59854;SDS011;45732;52.850;6.896;2023-08-07T06:23:36;15.18;;;3.95;;
59854;SDS011;45732;52.850;6.896;2023-08-07T06:26:02;14.27;;;4.07;;
59854;SDS011;45732;52.850;6.896;2023-08-07T06:28:29;13.68;;;4.13;;
59854;SDS011;45732;52.850;6.896;2023-08-07T06:31:01;12.95;;;3.80;;
59854;SDS011;45732;52.850;6.896;2023-08-07T06:33:33;13.90;;;4.15;;
59854;SDS011;45732;52.850;6.896;2023-08-07T06:35:59;12.48;;;4.20;;
59854;SDS011;45732;52.850;6.896;2023-08-07T06:38:25;13.80;;;3.97;;
59854;SDS011;45732;52.850;6.896;2023-08-07T06:40:51;12.07;;;3.83;;
59854;SDS011;45732;52.850;6.896;2023-08-07T06:43:17;11.60;;;3.38;;
59854;SDS011;45732;52.850;6.896;2023-08-07T06:45:43;13.90;;;3.63;;
59854;SDS011;45732;52.850;6.896;2023-08-07T06:48:11;13.38;;;3.78;;
59854;SDS011;45732;52.850;6.896;2023-08-07T06:50:37;13.10;;;3.65;;
59854;SDS011;45732;52.850;6.896;2023-08-07T06:53:03;13.38;;;3.85;;
59854;SDS011;45732;52.850;6.896;2023-08-07T06:55:28;15.25;;;4.10;;
59854;SDS011;45732;52.850;6.896;2023-08-07T06:57:54;12.02;;;3.83;;
59854;SDS011;45732;52.850;6.896;2023-08-07T07:00:20;13.20;;;3.67;;
59854;SDS011;45732;52.850;6.896;2023-08-07T07:02:45;16.85;;;4.32;;
59854;SDS011;45732;52.850;6.896;2023-08-07T07:05:11;13.85;;;3.78;;
59854;SDS011;45732;52.850;6.896;2023-08-07T07:07:37;11.60;;;3.42;;
59854;SDS011;45732;52.850;6.896;2023-08-07T07:10:03;12.52;;;3.50;;
59854;SDS011;45732;52.850;6.896;2023-08-07T07:12:29;9.23;;;3.10;;
59854;SDS011;45732;52.850;6.896;2023-08-07T07:14:55;15.48;;;3.65;;
59854;SDS011;45732;52.850;6.896;2023-08-07T07:17:21;12.00;;;3.38;;
59854;SDS011;45732;52.850;6.896;2023-08-07T07:19:46;14.15;;;3.63;;
59854;SDS011;45732;52.850;6.896;2023-08-07T07:22:12;11.77;;;3.35;;
59854;SDS011;45732;52.850;6.896;2023-08-07T07:24:38;10.98;;;3.15;;
59854;SDS011;45732;52.850;6.896;2023-08-07T07:27:04;10.93;;;3.22;;
59854;SDS011;45732;52.850;6.896;2023-08-07T07:29:30;13.10;;;3.45;;
59854;SDS011;45732;52.850;6.896;2023-08-07T07:31:55;10.93;;;3.42;;
59854;SDS011;45732;52.850;6.896;2023-08-07T07:34:21;15.55;;;3.63;;
59854;SDS011;45732;52.850;6.896;2023-08-07T07:36:47;11.45;;;3.42;;
59854;SDS011;45732;52.850;6.896;2023-08-07T07:39:13;14.18;;;3.75;;
59854;SDS011;45732;52.850;6.896;2023-08-07T07:41:39;10.88;;;3.10;;
59854;SDS011;45732;52.850;6.896;2023-08-07T07:44:04;11.57;;;3.50;;
59854;SDS011;45732;52.850;6.896;2023-08-07T07:46:30;11.43;;;3.25;;
59854;SDS011;45732;52.850;6.896;2023-08-07T07:48:58;11.23;;;2.85;;
59854;SDS011;45732;52.850;6.896;2023-08-07T07:51:24;13.65;;;3.40;;
59854;SDS011;45732;52.850;6.896;2023-08-07T07:53:49;11.15;;;3.80;;
59854;SDS011;45732;52.850;6.896;2023-08-07T07:56:15;10.35;;;3.10;;
59854;SDS011;45732;52.850;6.896;2023-08-07T07:58:41;11.43;;;2.97;;
59854;SDS011;45732;52.850;6.896;2023-08-07T08:01:07;8.02;;;2.40;;
59854;SDS011;45732;52.850;6.896;2023-08-07T08:03:33;8.10;;;2.05;;
59854;SDS011;45732;52.850;6.896;2023-08-07T08:05:59;6.53;;;2.10;;
59854;SDS011;45732;52.850;6.896;2023-08-07T08:08:25;6.65;;;1.85;;
59854;SDS011;45732;52.850;6.896;2023-08-07T08:10:51;9.15;;;2.50;;
59854;SDS011;45732;52.850;6.896;2023-08-07T08:13:17;11.35;;;2.55;;
59854;SDS011;45732;52.850;6.896;2023-08-07T08:15:43;8.13;;;2.58;;
59854;SDS011;45732;52.850;6.896;2023-08-07T08:18:10;10.93;;;2.53;;
59854;SDS011;45732;52.850;6.896;2023-08-07T08:20:37;7.63;;;1.98;;
59854;SDS011;45732;52.850;6.896;2023-08-07T08:23:03;7.72;;;2.60;;
59854;SDS011;45732;52.850;6.896;2023-08-07T08:25:29;9.45;;;2.55;;
59854;SDS011;45732;52.850;6.896;2023-08-07T08:27:56;8.02;;;2.70;;
59854;SDS011;45732;52.850;6.896;2023-08-07T08:30:21;9.90;;;2.38;;
59854;SDS011;45732;52.850;6.896;2023-08-07T08:32:47;10.05;;;2.50;;
59854;SDS011;45732;52.850;6.896;2023-08-07T08:35:13;13.38;;;3.13;;
59854;SDS011;45732;52.850;6.896;2023-08-07T08:37:39;9.82;;;2.72;;
59854;SDS011;45732;52.850;6.896;2023-08-07T08:40:06;10.15;;;2.53;;
59854;SDS011;45732;52.850;6.896;2023-08-07T08:42:33;8.02;;;2.30;;
59854;SDS011;45732;52.850;6.896;2023-08-07T08:44:59;6.80;;;2.40;;
59854;SDS011;45732;52.850;6.896;2023-08-07T08:47:27;7.47;;;2.35;;
59854;SDS011;45732;52.850;6.896;2023-08-07T08:50:04;8.93;;;2.17;;
59854;SDS011;45732;52.850;6.896;2023-08-07T08:52:33;9.05;;;2.97;;
59854;SDS011;45732;52.850;6.896;2023-08-07T08:55:00;10.73;;;2.75;;
59854;SDS011;45732;52.850;6.896;2023-08-07T08:57:28;9.35;;;2.70;;
59854;SDS011;45732;52.850;6.896;2023-08-07T08:59:55;9.85;;;2.92;;
59854;SDS011;45732;52.850;6.896;2023-08-07T09:02:21;11.95;;;3.10;;
59854;SDS011;45732;52.850;6.896;2023-08-07T09:04:47;9.68;;;3.15;;
59854;SDS011;45732;52.850;6.896;2023-08-07T09:07:14;15.85;;;3.65;;
59854;SDS011;45732;52.850;6.896;2023-08-07T09:09:43;13.38;;;3.20;;
59854;SDS011;45732;52.850;6.896;2023-08-07T09:12:12;8.95;;;2.92;;
59854;SDS011;45732;52.850;6.896;2023-08-07T09:14:53;11.77;;;4.03;;
59854;SDS011;45732;52.850;6.896;2023-08-07T09:17:26;11.73;;;2.85;;
59854;SDS011;45732;52.850;6.896;2023-08-07T09:22:20;11.80;;;3.05;;
59854;SDS011;45732;52.850;6.896;2023-08-07T09:24:46;10.07;;;3.08;;
59854;SDS011;45732;52.850;6.896;2023-08-07T09:27:12;10.63;;;2.70;;
59854;SDS011;45732;52.850;6.896;2023-08-07T09:29:44;10.63;;;3.25;;
59854;SDS011;45732;52.850;6.896;2023-08-07T09:32:12;11.20;;;3.10;;
59854;SDS011;45732;52.850;6.896;2023-08-07T09:34:41;7.80;;;2.58;;
59854;SDS011;45732;52.850;6.896;2023-08-07T09:37:07;9.73;;;2.97;;
59854;SDS011;45732;52.850;6.896;2023-08-07T09:39:34;10.23;;;2.47;;
59854;SDS011;45732;52.850;6.896;2023-08-07T09:42:01;14.73;;;3.35;;
59854;SDS011;45732;52.850;6.896;2023-08-07T09:44:37;13.02;;;3.00;;
59854;SDS011;45732;52.850;6.896;2023-08-07T09:47:16;12.88;;;3.42;;
59854;SDS011;45732;52.850;6.896;2023-08-07T09:49:43;10.82;;;3.17;;
59854;SDS011;45732;52.850;6.896;2023-08-07T09:52:10;8.20;;;2.55;;
59854;SDS011;45732;52.850;6.896;2023-08-07T09:54:40;9.88;;;2.47;;
59854;SDS011;45732;52.850;6.896;2023-08-07T09:57:10;10.38;;;2.60;;
59854;SDS011;45732;52.850;6.896;2023-08-07T09:59:36;9.73;;;2.58;;
59854;SDS011;45732;52.850;6.896;2023-08-07T10:02:02;8.05;;;2.47;;
59854;SDS011;45732;52.850;6.896;2023-08-07T10:04:29;8.20;;;2.72;;
59854;SDS011;45732;52.850;6.896;2023-08-07T10:06:55;10.48;;;2.30;;
59854;SDS011;45732;52.850;6.896;2023-08-07T10:09:22;8.90;;;2.33;;
59854;SDS011;45732;52.850;6.896;2023-08-07T10:11:49;10.00;;;2.78;;
59854;SDS011;45732;52.850;6.896;2023-08-07T10:14:15;9.27;;;2.47;;
59854;SDS011;45732;52.850;6.896;2023-08-07T10:16:42;9.75;;;2.55;;
59854;SDS011;45732;52.850;6.896;2023-08-07T10:19:08;9.48;;;3.08;;
59854;SDS011;45732;52.850;6.896;2023-08-07T10:21:38;12.68;;;2.65;;
59854;SDS011;45732;52.850;6.896;2023-08-07T10:24:05;11.20;;;2.72;;
59854;SDS011;45732;52.850;6.896;2023-08-07T10:26:35;11.25;;;2.58;;
59854;SDS011;45732;52.850;6.896;2023-08-07T10:29:04;9.52;;;2.53;;
59854;SDS011;45732;52.850;6.896;2023-08-07T10:31:34;10.23;;;2.63;;
59854;SDS011;45732;52.850;6.896;2023-08-07T10:34:01;11.45;;;2.75;;
59854;SDS011;45732;52.850;6.896;2023-08-07T10:36:34;7.70;;;2.08;;
59854;SDS011;45732;52.850;6.896;2023-08-07T10:39:13;7.75;;;2.55;;
59854;SDS011;45732;52.850;6.896;2023-08-07T10:41:45;9.10;;;2.25;;
59854;SDS011;45732;52.850;6.896;2023-08-07T10:44:16;10.60;;;2.47;;
59854;SDS011;45732;52.850;6.896;2023-08-07T10:46:47;7.28;;;2.55;;
59854;SDS011;45732;52.850;6.896;2023-08-07T10:49:39;10.63;;;2.65;;
59854;SDS011;45732;52.850;6.896;2023-08-07T10:52:12;8.85;;;2.95;;
59854;SDS011;45732;52.850;6.896;2023-08-07T10:54:46;13.52;;;3.10;;
59854;SDS011;45732;52.850;6.896;2023-08-07T10:57:14;9.23;;;2.47;;
59854;SDS011;45732;52.850;6.896;2023-08-07T10:59:44;8.82;;;2.58;;
59854;SDS011;45732;52.850;6.896;2023-08-07T11:02:28;10.20;;;2.30;;
59854;SDS011;45732;52.850;6.896;2023-08-07T11:04:55;9.55;;;2.42;;
59854;SDS011;45732;52.850;6.896;2023-08-07T11:07:24;6.78;;;2.20;;
59854;SDS011;45732;52.850;6.896;2023-08-07T11:09:51;9.15;;;2.42;;
59854;SDS011;45732;52.850;6.896;2023-08-07T11:12:18;7.22;;;2.30;;
59854;SDS011;45732;52.850;6.896;2023-08-07T11:14:44;8.82;;;2.13;;
59854;SDS011;45732;52.850;6.896;2023-08-07T11:17:10;9.48;;;2.30;;
59854;SDS011;45732;52.850;6.896;2023-08-07T11:19:36;8.95;;;2.60;;
59854;SDS011;45732;52.850;6.896;2023-08-07T11:22:02;6.80;;;2.63;;
59854;SDS011;45732;52.850;6.896;2023-08-07T11:24:28;9.95;;;2.70;;
59854;SDS011;45732;52.850;6.896;2023-08-07T11:26:53;7.18;;;2.38;;
59854;SDS011;45732;52.850;6.896;2023-08-07T11:29:21;10.15;;;2.40;;
59854;SDS011;45732;52.850;6.896;2023-08-07T11:31:49;9.05;;;2.53;;
59854;SDS011;45732;52.850;6.896;2023-08-07T11:34:18;8.63;;;2.20;;
59854;SDS011;45732;52.850;6.896;2023-08-07T11:36:45;6.35;;;2.10;;
59854;SDS011;45732;52.850;6.896;2023-08-07T11:39:13;8.70;;;2.38;;
59854;SDS011;45732;52.850;6.896;2023-08-07T11:41:39;7.90;;;2.40;;
59854;SDS011;45732;52.850;6.896;2023-08-07T11:44:08;7.72;;;2.30;;
59854;SDS011;45732;52.850;6.896;2023-08-07T11:46:34;6.35;;;2.30;;
59854;SDS011;45732;52.850;6.896;2023-08-07T11:49:00;9.25;;;2.70;;
59854;SDS011;45732;52.850;6.896;2023-08-07T11:51:26;8.35;;;1.90;;
59854;SDS011;45732;52.850;6.896;2023-08-07T11:53:53;8.15;;;2.33;;
59854;SDS011;45732;52.850;6.896;2023-08-07T11:56:21;6.93;;;2.00;;
59854;SDS011;45732;52.850;6.896;2023-08-07T11:58:48;8.23;;;2.13;;
59854;SDS011;45732;52.850;6.896;2023-08-07T12:01:24;6.10;;;1.98;;
59854;SDS011;45732;52.850;6.896;2023-08-07T12:03:55;4.93;;;1.88;;
59854;SDS011;45732;52.850;6.896;2023-08-07T12:06:22;8.27;;;1.95;;
59854;SDS011;45732;52.850;6.896;2023-08-07T12:08:49;8.88;;;2.03;;
59854;SDS011;45732;52.850;6.896;2023-08-07T12:11:19;7.40;;;1.90;;
59854;SDS011;45732;52.850;6.896;2023-08-07T12:13:48;4.95;;;1.70;;
59854;SDS011;45732;52.850;6.896;2023-08-07T12:16:15;6.15;;;1.90;;
59854;SDS011;45732;52.850;6.896;2023-08-07T12:21:12;5.15;;;1.65;;
59854;SDS011;45732;52.850;6.896;2023-08-07T12:23:39;7.07;;;1.95;;
59854;SDS011;45732;52.850;6.896;2023-08-07T12:26:05;6.82;;;1.80;;
59854;SDS011;45732;52.850;6.896;2023-08-07T12:28:32;5.70;;;1.77;;
59854;SDS011;45732;52.850;6.896;2023-08-07T12:31:01;6.75;;;1.75;;
59854;SDS011;45732;52.850;6.896;2023-08-07T12:33:31;7.20;;;2.25;;
59854;SDS011;45732;52.850;6.896;2023-08-07T12:36:00;7.70;;;1.63;;
59854;SDS011;45732;52.850;6.896;2023-08-07T12:38:26;6.40;;;1.92;;
59854;SDS011;45732;52.850;6.896;2023-08-07T12:40:53;7.03;;;2.15;;
59854;SDS011;45732;52.850;6.896;2023-08-07T12:43:19;5.75;;;1.95;;
59854;SDS011;45732;52.850;6.896;2023-08-07T12:45:45;6.68;;;2.22;;
59854;SDS011;45732;52.850;6.896;2023-08-07T12:48:11;9.73;;;2.22;;
59854;SDS011;45732;52.850;6.896;2023-08-07T12:50:37;9.18;;;2.60;;
59854;SDS011;45732;52.850;6.896;2023-08-07T12:53:03;9.75;;;2.70;;
59854;SDS011;45732;52.850;6.896;2023-08-07T12:55:29;6.80;;;2.80;;
59854;SDS011;45732;52.850;6.896;2023-08-07T12:57:55;9.43;;;2.78;;
59854;SDS011;45732;52.850;6.896;2023-08-07T13:00:22;9.98;;;2.70;;
59854;SDS011;45732;52.850;6.896;2023-08-07T13:02:49;10.93;;;3.17;;
59854;SDS011;45732;52.850;6.896;2023-08-07T13:05:16;8.63;;;2.58;;
59854;SDS011;45732;52.850;6.896;2023-08-07T13:07:43;9.52;;;2.50;;
59854;SDS011;45732;52.850;6.896;2023-08-07T13:10:10;7.82;;;2.63;;
59854;SDS011;45732;52.850;6.896;2023-08-07T13:12:40;7.07;;;2.03;;
59854;SDS011;45732;52.850;6.896;2023-08-07T13:15:08;8.23;;;2.28;;
59854;SDS011;45732;52.850;6.896;2023-08-07T13:17:37;7.53;;;1.92;;
59854;SDS011;45732;52.850;6.896;2023-08-07T13:20:04;9.15;;;2.05;;
59854;SDS011;45732;52.850;6.896;2023-08-07T13:22:42;7.50;;;1.90;;
59854;SDS011;45732;52.850;6.896;2023-08-07T13:25:10;6.95;;;2.05;;
59854;SDS011;45732;52.850;6.896;2023-08-07T13:27:38;5.72;;;2.08;;
59854;SDS011;45732;52.850;6.896;2023-08-07T13:30:04;7.38;;;2.10;;
59854;SDS011;45732;52.850;6.896;2023-08-07T13:32:31;6.53;;;2.05;;
59854;SDS011;45732;52.850;6.896;2023-08-07T13:35:00;4.47;;;1.98;;
59854;SDS011;45732;52.850;6.896;2023-08-07T13:37:26;7.57;;;1.85;;
59854;SDS011;45732;52.850;6.896;2023-08-07T13:39:51;4.88;;;1.92;;
59854;SDS011;45732;52.850;6.896;2023-08-07T13:42:19;7.78;;;2.20;;
59854;SDS011;45732;52.850;6.896;2023-08-07T13:44:45;5.45;;;1.90;;
59854;SDS011;45732;52.850;6.896;2023-08-07T13:47:10;7.07;;;2.22;;
59854;SDS011;45732;52.850;6.896;2023-08-07T13:49:37;9.63;;;2.40;;
59854;SDS011;45732;52.850;6.896;2023-08-07T13:52:04;7.95;;;2.53;;
59854;SDS011;45732;52.850;6.896;2023-08-07T13:54:29;7.38;;;2.47;;
59854;SDS011;45732;52.850;6.896;2023-08-07T13:56:55;6.53;;;2.10;;
59854;SDS011;45732;52.850;6.896;2023-08-07T13:59:21;8.45;;;2.50;;
59854;SDS011;45732;52.850;6.896;2023-08-07T14:01:47;7.95;;;2.55;;
59854;SDS011;45732;52.850;6.896;2023-08-07T14:04:12;8.25;;;2.30;;
59854;SDS011;45732;52.850;6.896;2023-08-07T14:06:39;9.05;;;2.38;;
59854;SDS011;45732;52.850;6.896;2023-08-07T14:09:08;7.72;;;2.45;;
59854;SDS011;45732;52.850;6.896;2023-08-07T14:11:34;8.13;;;2.67;;
59854;SDS011;45732;52.850;6.896;2023-08-07T14:14:01;7.82;;;2.83;;
59854;SDS011;45732;52.850;6.896;2023-08-07T14:16:26;7.80;;;2.28;;
59854;SDS011;45732;52.850;6.896;2023-08-07T14:18:52;7.28;;;2.42;;
59854;SDS011;45732;52.850;6.896;2023-08-07T14:21:18;7.93;;;2.42;;
59854;SDS011;45732;52.850;6.896;2023-08-07T14:23:44;9.18;;;2.67;;
59854;SDS011;45732;52.850;6.896;2023-08-07T14:26:13;8.38;;;2.75;;
59854;SDS011;45732;52.850;6.896;2023-08-07T14:28:39;10.05;;;2.72;;
59854;SDS011;45732;52.850;6.896;2023-08-07T14:31:08;11.10;;;2.95;;
59854;SDS011;45732;52.850;6.896;2023-08-07T14:33:34;7.75;;;2.47;;
59854;SDS011;45732;52.850;6.896;2023-08-07T14:36:01;7.15;;;2.83;;
59854;SDS011;45732;52.850;6.896;2023-08-07T14:38:27;8.43;;;2.92;;
59854;SDS011;45732;52.850;6.896;2023-08-07T14:40:53;8.85;;;2.90;;
59854;SDS011;45732;52.850;6.896;2023-08-07T14:43:19;11.68;;;3.42;;
59854;SDS011;45732;52.850;6.896;2023-08-07T14:45:45;11.18;;;2.90;;
59854;SDS011;45732;52.850;6.896;2023-08-07T14:48:12;11.02;;;2.53;;